createdAt,value
2023-04-12T00:01:29.355Z,91.39
2023-04-12T00:03:34.564Z,91.58
2023-04-12T00:05:39.126Z,91.36
2023-04-12T00:07:47.105Z,91.67
2023-04-12T00:09:51.130Z,91.60
2023-04-12T00:11:54.951Z,92.06
2023-04-12T00:13:58.977Z,92.25
2023-04-12T00:16:04.141Z,92.08
2023-04-12T00:18:07.618Z,92.34
2023-04-12T00:20:13.145Z,92.15
2023-04-12T00:22:17.153Z,91.82
2023-04-12T00:24:20.826Z,92.04
2023-04-12T00:26:25.277Z,91.99
2023-04-12T00:28:29.366Z,91.77
2023-04-12T00:30:33.049Z,91.60
2023-04-12T00:32:38.096Z,91.61
2023-04-12T00:34:42.046Z,91.51
2023-04-12T00:36:45.737Z,91.15
2023-04-12T00:38:49.188Z,90.79
2023-04-12T00:40:52.395Z,90.73
2023-04-12T00:42:55.621Z,90.69
2023-04-12T00:44:59.017Z,90.48
2023-04-12T00:47:03.074Z,89.83
2023-04-12T00:49:08.158Z,89.71
2023-04-12T00:51:11.553Z,89.19
2023-04-12T00:53:15.829Z,88.82
2023-04-12T00:55:19.253Z,88.73
2023-04-12T00:57:22.570Z,88.74
2023-04-12T00:59:26.647Z,88.77
2023-04-12T01:01:32.112Z,88.48
2023-04-12T01:03:35.470Z,88.82
2023-04-12T01:05:51.174Z,89.21
2023-04-12T01:08:05.301Z,88.94
2023-04-12T01:10:16.103Z,88.64
2023-04-12T01:12:27.434Z,88.23
2023-04-12T01:14:42.487Z,88.67
2023-04-12T01:16:51.279Z,88.60
2023-04-12T01:19:05.053Z,88.36
2023-04-12T01:21:16.646Z,88.58
2023-04-12T01:23:43.041Z,88.61
2023-04-12T01:26:11.177Z,88.41
2023-04-12T01:28:17.822Z,88.40
2023-04-12T01:30:26.585Z,88.18
2023-04-12T01:32:31.866Z,88.27
2023-04-12T01:34:37.099Z,88.27
2023-04-12T01:36:40.713Z,88.49
2023-04-12T01:38:45.080Z,88.10
2023-04-12T01:40:50.051Z,87.75
2023-04-12T01:43:06.177Z,87.50
2023-04-12T01:45:11.613Z,87.30
2023-04-12T01:47:15.030Z,87.13
2023-04-12T01:49:19.458Z,86.57
2023-04-12T01:51:35.309Z,86.67
2023-04-12T01:53:47.930Z,86.60
2023-04-12T01:55:54.170Z,86.66
2023-04-12T01:57:59.064Z,86.19
2023-04-12T02:00:06.662Z,86.15
2023-04-12T02:02:18.964Z,85.95
2023-04-12T02:04:23.175Z,85.93
2023-04-12T02:06:28.018Z,86.26
2023-04-12T02:08:31.907Z,86.47
2023-04-12T02:10:36.754Z,87.01
2023-04-12T02:12:40.109Z,87.18
2023-04-12T02:14:43.448Z,87.69
2023-04-12T02:16:48.097Z,87.71
2023-04-12T02:18:52.955Z,87.89
2023-04-12T02:20:57.782Z,87.79
2023-04-12T02:23:01.143Z,87.93
2023-04-12T02:25:06.479Z,88.12
2023-04-12T02:27:09.426Z,88.08
2023-04-12T02:29:14.347Z,88.19
2023-04-12T02:31:17.880Z,88.02
2023-04-12T02:33:28.354Z,88.25
2023-04-12T02:35:36.370Z,88.53
2023-04-12T02:37:46.789Z,88.50
2023-04-12T02:39:50.099Z,89.03
2023-04-12T02:41:53.628Z,89.05
2023-04-12T02:43:57.091Z,88.71
2023-04-12T02:46:00.712Z,88.52
2023-04-12T02:48:05.442Z,88.41
2023-04-12T02:50:09.832Z,88.57
2023-04-12T02:52:24.446Z,88.54
2023-04-12T02:54:40.511Z,88.38
2023-04-12T02:56:50.213Z,88.64
2023-04-12T02:59:10.608Z,88.55
2023-04-12T03:01:34.057Z,88.77
2023-04-12T03:03:57.328Z,88.82
2023-04-12T03:06:14.482Z,88.71
2023-04-12T03:08:20.509Z,88.56
2023-04-12T03:10:29.108Z,88.67
2023-04-12T03:12:41.125Z,88.01
2023-04-12T03:14:52.520Z,87.50
2023-04-12T03:16:59.821Z,87.44
2023-04-12T03:19:03.217Z,87.11
2023-04-12T03:21:07.671Z,86.70
2023-04-12T03:23:11.159Z,86.57
2023-04-12T03:25:21.292Z,86.68
2023-04-12T03:27:31.018Z,86.73
2023-04-12T03:29:35.048Z,86.60
2023-04-12T03:31:39.437Z,86.39
2023-04-12T03:33:44.964Z,86.63
2023-04-12T03:35:56.796Z,86.70
2023-04-12T03:38:01.214Z,86.77
2023-04-12T03:40:06.190Z,86.54
2023-04-12T03:42:18.697Z,86.71
2023-04-12T03:44:33.563Z,86.63
2023-04-12T03:46:42.201Z,86.50
2023-04-12T03:48:47.404Z,86.61
2023-04-12T03:50:54.801Z,86.52
2023-04-12T03:52:59.375Z,86.40
2023-04-12T03:55:08.580Z,86.35
2023-04-12T03:57:14.676Z,85.99
2023-04-12T03:59:21.175Z,86.02
2023-04-12T04:01:26.147Z,85.77
2023-04-12T04:03:30.196Z,85.46
2023-04-12T04:05:44.316Z,85.24
2023-04-12T04:07:48.978Z,85.03
2023-04-12T04:09:52.431Z,85.13
2023-04-12T04:11:56.033Z,84.46
2023-04-12T04:14:01.440Z,85.21
2023-04-12T04:16:07.190Z,84.97
2023-04-12T04:18:10.510Z,84.62
2023-04-12T04:20:14.662Z,84.67
2023-04-12T04:22:22.951Z,84.47
2023-04-12T04:24:28.316Z,83.99
2023-04-12T04:26:38.469Z,83.89
2023-04-12T04:28:50.437Z,83.60
2023-04-12T04:31:04.205Z,83.60
2023-04-12T04:33:09.002Z,83.44
2023-04-12T04:35:17.215Z,83.49
2023-04-12T04:37:43.672Z,82.95
2023-04-12T04:39:48.679Z,82.99
2023-04-12T04:41:55.151Z,82.78
2023-04-12T04:44:09.713Z,83.07
2023-04-12T04:46:21.401Z,82.85
2023-04-12T04:48:25.537Z,82.85
2023-04-12T04:50:29.724Z,82.20
2023-04-12T04:52:33.416Z,82.40
2023-04-12T04:54:43.709Z,82.25
2023-04-12T04:56:47.628Z,82.10
2023-04-12T04:58:54.737Z,81.95
2023-04-12T05:01:00.976Z,81.90
2023-04-12T05:03:08.068Z,81.74
2023-04-12T05:05:12.784Z,81.46
2023-04-12T05:07:16.420Z,81.31
2023-04-12T05:09:22.556Z,80.71
2023-04-12T05:11:32.472Z,80.37
2023-04-12T05:13:36.171Z,80.11
2023-04-12T05:15:42.258Z,79.89
2023-04-12T05:17:46.320Z,79.30
2023-04-12T05:19:51.318Z,79.30
2023-04-12T05:21:55.083Z,78.12
2023-04-12T05:23:58.596Z,78.47
2023-04-12T05:26:02.401Z,77.75
2023-04-12T05:28:12.000Z,77.59
2023-04-12T05:30:15.798Z,77.39
2023-04-12T05:32:20.305Z,77.15
2023-04-12T05:34:24.156Z,76.87
2023-04-12T05:36:32.135Z,76.89
2023-04-12T05:38:36.068Z,76.51
2023-04-12T05:40:44.905Z,75.97
2023-04-12T05:42:51.224Z,75.86
2023-04-12T05:44:56.616Z,76.02
2023-04-12T05:47:01.562Z,75.86
2023-04-12T05:49:05.148Z,76.10
2023-04-12T05:51:09.978Z,76.17
2023-04-12T05:53:14.870Z,76.17
2023-04-12T05:55:18.570Z,76.23
2023-04-12T05:57:22.254Z,76.16
2023-04-12T05:59:26.162Z,76.06
2023-04-12T06:01:32.515Z,76.36
2023-04-12T06:03:42.036Z,76.13
2023-04-12T06:05:48.070Z,76.24
2023-04-12T06:07:51.712Z,76.45
2023-04-12T06:09:56.990Z,76.37
2023-04-12T06:12:01.021Z,76.85
2023-04-12T06:14:06.435Z,76.93
2023-04-12T06:16:10.348Z,76.99
2023-04-12T06:18:14.200Z,77.36
2023-04-12T06:20:17.691Z,78.05
2023-04-12T06:22:21.132Z,78.65
2023-04-12T06:24:25.046Z,79.44
2023-04-12T06:26:37.408Z,80.46
2023-04-12T06:28:43.768Z,81.50
2023-04-12T06:30:47.643Z,81.73
2023-04-12T06:32:51.396Z,82.07
2023-04-12T06:34:55.371Z,84.39
2023-04-12T06:37:00.100Z,85.05
2023-04-12T06:39:04.014Z,86.32
2023-04-12T06:41:08.121Z,87.01
2023-04-12T06:43:14.001Z,87.53
2023-04-12T06:45:17.864Z,87.92
2023-04-12T06:47:22.939Z,88.92
2023-04-12T06:49:26.513Z,89.22
2023-04-12T06:51:30.666Z,88.94
2023-04-12T06:53:35.379Z,89.82
2023-04-12T06:55:39.081Z,90.84
2023-04-12T06:57:43.588Z,91.08
2023-04-12T06:59:49.203Z,90.80
2023-04-12T07:01:53.011Z,91.38
2023-04-12T07:03:56.915Z,92.36
2023-04-12T07:06:10.611Z,92.36
2023-04-12T07:08:21.157Z,92.40
2023-04-12T07:10:24.719Z,93.27
2023-04-12T07:12:28.452Z,93.78
2023-04-12T07:14:32.118Z,94.05
2023-04-12T07:16:37.135Z,94.76
2023-04-12T07:18:40.994Z,94.40
2023-04-12T07:20:44.610Z,94.70
2023-04-12T07:22:48.199Z,95.45
2023-04-12T07:24:52.237Z,96.08
2023-04-12T07:26:59.377Z,96.67
2023-04-12T07:29:02.837Z,97.02
2023-04-12T07:31:07.859Z,97.53
2023-04-12T07:33:19.467Z,98.29
2023-04-12T07:35:23.885Z,98.94
2023-04-12T07:37:27.553Z,99.53
2023-04-12T07:39:31.945Z,99.76
2023-04-12T07:41:35.651Z,100.00
2023-04-12T07:43:39.343Z,100.00
2023-04-12T07:45:42.988Z,100.00
2023-04-12T07:47:46.771Z,100.00
2023-04-12T07:49:51.794Z,100.00
2023-04-12T07:51:55.522Z,100.00
2023-04-12T07:53:59.308Z,99.41
2023-04-12T07:56:05.224Z,99.22
2023-04-12T07:58:10.109Z,100.00
2023-04-12T08:00:14.452Z,99.79
2023-04-12T08:02:25.214Z,99.81
2023-04-12T08:04:29.291Z,98.96
2023-04-12T08:06:34.581Z,99.06
2023-04-12T08:08:38.278Z,99.09
2023-04-12T08:10:41.931Z,98.94
2023-04-12T08:12:45.708Z,98.76
2023-04-12T08:14:49.171Z,98.60
2023-04-12T08:16:52.631Z,97.88
2023-04-12T08:18:56.407Z,97.70
2023-04-12T08:21:00.892Z,97.03
2023-04-12T08:23:05.969Z,96.78
2023-04-12T08:25:10.848Z,95.77
2023-04-12T08:27:14.305Z,95.33
2023-04-12T08:29:18.111Z,94.59
2023-04-12T08:31:21.802Z,94.60
2023-04-12T08:33:25.952Z,93.60
2023-04-12T08:35:29.703Z,92.20
2023-04-12T08:37:33.436Z,92.38
2023-04-12T08:39:38.902Z,92.65
2023-04-12T08:41:43.054Z,93.05
2023-04-12T08:43:48.252Z,93.90
2023-04-12T08:45:52.138Z,93.92
2023-04-12T08:47:56.771Z,94.24
2023-04-12T08:50:02.903Z,94.36
2023-04-12T08:52:09.694Z,95.20
2023-04-12T08:54:14.424Z,96.16
2023-04-12T08:56:22.412Z,96.39
2023-04-12T08:58:27.331Z,96.18
2023-04-12T09:00:32.370Z,96.87
2023-04-12T09:02:37.658Z,96.35
2023-04-12T09:04:51.355Z,96.71
2023-04-12T09:06:55.280Z,97.35
2023-04-12T09:09:00.393Z,97.58
2023-04-12T09:11:05.365Z,98.20
2023-04-12T09:13:11.590Z,96.99
2023-04-12T09:15:18.576Z,96.88
2023-04-12T09:17:25.821Z,97.36
2023-04-12T09:19:34.599Z,97.51
2023-04-12T09:21:38.983Z,98.48
2023-04-12T09:23:43.770Z,98.56
2023-04-12T09:25:49.664Z,98.54
2023-04-12T09:27:58.515Z,98.89
2023-04-12T09:30:16.662Z,99.19
2023-04-12T09:32:28.132Z,99.67
2023-04-12T09:34:32.711Z,98.46
2023-04-12T09:36:40.634Z,97.55
2023-04-12T09:39:01.011Z,96.64
2023-04-12T09:41:22.324Z,95.66
2023-04-12T09:43:38.872Z,94.79
2023-04-12T09:45:44.201Z,94.77
2023-04-12T09:47:48.914Z,93.65
2023-04-12T09:49:53.540Z,91.90
2023-04-12T09:51:59.428Z,91.44
2023-04-12T09:54:05.505Z,91.06
2023-04-12T09:56:12.294Z,89.44
2023-04-12T09:58:21.503Z,90.43
2023-04-12T10:00:27.873Z,89.99
2023-04-12T10:02:34.101Z,90.58
2023-04-12T10:04:41.497Z,90.28
2023-04-12T10:06:46.224Z,90.46
2023-04-12T10:08:51.331Z,90.54
2023-04-12T10:10:55.347Z,90.17
2023-04-12T10:13:01.108Z,89.58
2023-04-12T10:15:12.913Z,89.79
2023-04-12T10:17:17.105Z,89.99
2023-04-12T10:19:24.431Z,89.16
2023-04-12T10:21:28.515Z,89.56
2023-04-12T10:23:33.988Z,86.98
2023-04-12T10:25:41.288Z,86.75
2023-04-12T10:27:49.070Z,85.00
2023-04-12T10:29:53.109Z,83.71
2023-04-12T10:31:58.157Z,83.79
2023-04-12T10:34:04.128Z,83.13
2023-04-12T10:36:12.519Z,83.02
2023-04-12T10:38:17.558Z,83.22
2023-04-12T10:40:21.652Z,82.70
2023-04-12T10:42:27.600Z,82.77
2023-04-12T10:44:32.524Z,83.00
2023-04-12T10:46:54.272Z,82.00
2023-04-12T10:48:59.565Z,82.03
2023-04-12T10:51:23.719Z,82.32
2023-04-12T10:53:27.418Z,82.75
2023-04-12T10:55:33.791Z,82.57
2023-04-12T10:57:49.631Z,82.03
2023-04-12T10:59:57.596Z,81.10
2023-04-12T11:02:12.329Z,79.95
2023-04-12T11:04:20.899Z,79.42
2023-04-12T11:07:03.269Z,79.09
2023-04-12T11:09:22.353Z,79.49
2023-04-12T11:11:27.795Z,78.96
2023-04-12T11:13:36.576Z,78.35
2023-04-12T11:15:41.553Z,78.63
2023-04-12T11:17:56.976Z,79.47
2023-04-12T11:20:02.560Z,78.86
2023-04-12T11:22:10.677Z,78.39
2023-04-12T11:24:17.111Z,77.22
2023-04-12T11:26:22.346Z,77.36
2023-04-12T11:28:30.493Z,76.88
2023-04-12T11:30:35.708Z,75.35
2023-04-12T11:32:41.683Z,73.54
2023-04-12T11:34:46.985Z,73.54
2023-04-12T11:36:54.747Z,71.77
2023-04-12T11:39:00.193Z,72.37
2023-04-12T11:41:04.076Z,73.62
2023-04-12T11:43:07.891Z,74.85
2023-04-12T11:45:18.174Z,75.86
2023-04-12T11:47:24.128Z,76.37
2023-04-12T11:49:28.868Z,76.13
2023-04-12T11:51:33.973Z,75.93
2023-04-12T11:53:37.882Z,75.74
2023-04-12T11:55:43.057Z,75.61
2023-04-12T11:57:54.980Z,75.95
2023-04-12T12:00:00.853Z,75.87
2023-04-12T12:02:17.183Z,76.23
2023-04-12T12:04:26.896Z,77.02
2023-04-12T12:06:31.581Z,77.07
2023-04-12T12:08:35.845Z,76.85
2023-04-12T12:10:52.317Z,76.12
2023-04-12T12:13:10.604Z,77.17
2023-04-12T12:15:17.022Z,76.97
2023-04-12T12:17:20.911Z,77.45
2023-04-12T12:19:29.867Z,77.49
2023-04-12T12:21:33.659Z,77.58
2023-04-12T12:23:37.771Z,77.53
2023-04-12T12:25:48.376Z,76.96
2023-04-12T12:27:59.525Z,75.71
2023-04-12T12:30:06.004Z,75.13
2023-04-12T12:32:15.493Z,75.11
2023-04-12T12:34:20.324Z,75.65
2023-04-12T12:36:31.525Z,75.79
2023-04-12T12:38:37.627Z,76.04
2023-04-12T12:40:41.701Z,76.15
2023-04-12T12:42:50.109Z,76.35
2023-04-12T12:44:53.880Z,76.53
2023-04-12T12:47:10.070Z,76.39
2023-04-12T12:49:17.977Z,76.75
2023-04-12T12:51:21.795Z,77.84
2023-04-12T12:53:25.548Z,78.29
2023-04-12T12:55:30.316Z,78.88
2023-04-12T12:57:35.858Z,80.07
2023-04-12T12:59:39.525Z,80.38
2023-04-12T13:01:43.269Z,80.92
2023-04-12T13:03:48.997Z,81.87
2023-04-12T13:05:52.911Z,82.54
2023-04-12T13:07:57.079Z,83.80
2023-04-12T13:10:01.051Z,83.92
2023-04-12T13:12:05.127Z,84.88
2023-04-12T13:14:08.915Z,85.95
2023-04-12T13:16:12.771Z,86.51
2023-04-12T13:18:17.025Z,87.09
2023-04-12T13:20:21.993Z,88.17
2023-04-12T13:22:27.550Z,88.91
2023-04-12T13:24:31.414Z,89.57
2023-04-12T13:26:35.364Z,90.07
2023-04-12T13:28:38.861Z,90.97
2023-04-12T13:30:42.682Z,91.41
2023-04-12T13:32:46.393Z,92.18
2023-04-12T13:34:50.148Z,93.06
2023-04-12T13:36:55.592Z,93.54
2023-04-12T13:38:59.784Z,94.29
2023-04-12T13:41:04.252Z,93.90
2023-04-12T13:43:08.938Z,94.88
2023-04-12T13:45:13.490Z,95.22
2023-04-12T13:47:18.080Z,96.00
2023-04-12T13:49:22.092Z,96.43
2023-04-12T13:51:27.041Z,96.45
2023-04-12T13:53:32.164Z,96.53
2023-04-12T13:55:36.152Z,97.29
2023-04-12T13:57:39.839Z,97.57
2023-04-12T13:59:43.471Z,97.95
2023-04-12T14:01:47.655Z,98.27
2023-04-12T14:03:51.455Z,98.85
2023-04-12T14:05:56.215Z,99.08
2023-04-12T14:08:00.139Z,100.00
2023-04-12T14:10:06.051Z,100.00
2023-04-12T14:12:09.557Z,100.00
2023-04-12T14:14:14.851Z,100.00
2023-04-12T14:16:20.309Z,100.00
2023-04-12T14:18:23.968Z,100.00
2023-04-12T14:20:27.743Z,100.00
2023-04-12T14:22:31.723Z,100.00
2023-04-12T14:24:35.552Z,100.00
2023-04-12T14:26:41.324Z,100.00
2023-04-12T14:28:45.300Z,100.00
2023-04-12T14:30:50.682Z,100.00
2023-04-12T14:32:54.629Z,100.00
2023-04-12T14:34:58.551Z,100.00
2023-04-12T14:37:02.238Z,100.00
2023-04-12T14:39:09.372Z,100.00
2023-04-12T14:41:14.766Z,100.00
2023-04-12T14:43:19.760Z,100.00
2023-04-12T14:45:24.206Z,100.00
2023-04-12T14:47:27.916Z,100.00
2023-04-12T14:49:33.196Z,100.00
2023-04-12T14:51:37.303Z,100.00
2023-04-12T14:53:43.008Z,100.00
2023-04-12T14:55:47.288Z,100.00
2023-04-12T14:57:51.493Z,100.00
2023-04-12T14:59:57.125Z,100.00
2023-04-12T15:02:01.139Z,100.00
2023-04-12T15:04:06.825Z,100.00
2023-04-12T15:06:11.375Z,100.00
2023-04-12T15:08:14.957Z,100.00
2023-04-12T15:10:19.044Z,100.00
2023-04-12T15:12:22.717Z,100.00
2023-04-12T15:14:26.425Z,100.00
2023-04-12T15:16:31.821Z,100.00
2023-04-12T15:18:38.206Z,100.00
2023-04-12T15:20:41.831Z,100.00
2023-04-12T15:22:45.762Z,100.00
2023-04-12T15:24:49.529Z,100.00
2023-04-12T15:26:54.180Z,100.00
2023-04-12T15:28:57.786Z,100.00
2023-04-12T15:31:01.466Z,100.00
2023-04-12T15:33:06.901Z,100.00
2023-04-12T15:37:18.471Z,100.00
2023-04-12T15:39:22.513Z,100.00
2023-04-12T15:41:26.727Z,100.00
2023-04-12T15:43:31.084Z,100.00
2023-04-12T15:45:35.005Z,100.00
2023-04-12T15:47:39.024Z,100.00
2023-04-12T15:49:44.274Z,100.00
2023-04-12T15:51:47.861Z,100.00
2023-04-12T15:53:51.847Z,100.00
2023-04-12T15:55:55.554Z,100.00
2023-04-12T15:57:58.930Z,100.00
2023-04-12T16:00:12.383Z,100.00
2023-04-12T16:02:15.882Z,100.00
2023-04-12T16:04:19.535Z,100.00
2023-04-12T16:06:25.658Z,100.00
2023-04-12T16:08:29.232Z,100.00
2023-04-12T16:10:33.565Z,100.00
2023-04-12T16:12:37.022Z,100.00
2023-04-12T16:14:40.962Z,100.00
2023-04-12T16:16:45.009Z,100.00
2023-04-12T16:18:48.905Z,100.00
2023-04-12T16:20:52.987Z,100.00
2023-04-12T16:22:59.124Z,100.00
2023-04-12T16:25:02.496Z,100.00
2023-04-12T16:27:06.183Z,100.00
2023-04-12T16:29:10.954Z,100.00
2023-04-12T16:31:15.782Z,100.00
2023-04-12T16:33:19.453Z,100.00
2023-04-12T16:35:23.083Z,100.00
2023-04-12T16:37:29.864Z,100.00
2023-04-12T16:39:35.443Z,100.00
2023-04-12T16:41:39.405Z,100.00
2023-04-12T16:43:45.417Z,100.00
2023-04-12T16:45:49.655Z,100.00
2023-04-12T16:47:53.613Z,100.00
2023-04-12T16:49:57.662Z,100.00
2023-04-12T16:52:01.544Z,100.00
2023-04-12T16:54:05.422Z,100.00
2023-04-12T16:56:12.078Z,100.00
2023-04-12T16:58:16.442Z,100.00
2023-04-12T17:00:25.305Z,100.00
2023-04-12T17:02:29.140Z,100.00
2023-04-12T17:04:33.109Z,100.00
2023-04-12T17:06:38.556Z,100.00
2023-04-12T17:08:44.184Z,100.00
2023-04-12T17:10:47.801Z,100.00
2023-04-12T17:12:54.123Z,100.00
2023-04-12T17:14:58.478Z,100.00
2023-04-12T17:17:06.247Z,100.00
2023-04-12T17:19:10.754Z,100.00
2023-04-12T17:21:19.209Z,100.00
2023-04-12T17:23:23.200Z,100.00
2023-04-12T17:25:31.488Z,100.00
2023-04-12T17:27:37.689Z,100.00
2023-04-12T17:29:42.771Z,100.00
2023-04-12T17:31:50.748Z,100.00
2023-04-12T17:33:56.972Z,100.00
2023-04-12T17:36:02.067Z,100.00
2023-04-12T17:38:05.767Z,100.00
2023-04-12T17:40:12.101Z,100.00
2023-04-12T17:42:27.257Z,100.00
2023-04-12T17:44:32.633Z,100.00
2023-04-12T17:46:38.243Z,100.00
2023-04-12T17:48:42.762Z,100.00
2023-04-12T17:50:47.425Z,100.00
2023-04-12T17:52:51.108Z,100.00
2023-04-12T17:54:55.137Z,100.00
2023-04-12T17:56:58.710Z,100.00
2023-04-12T17:59:06.088Z,100.00
2023-04-12T18:01:10.025Z,100.00
2023-04-12T18:03:16.078Z,100.00
2023-04-12T18:05:20.090Z,100.00
2023-04-12T18:07:24.408Z,100.00
2023-04-12T18:09:28.676Z,100.00
2023-04-12T18:11:34.464Z,100.00
2023-04-12T18:13:38.200Z,100.00
2023-04-12T18:15:41.835Z,100.00
2023-04-12T18:17:45.680Z,100.00
2023-04-12T18:19:50.720Z,100.00
2023-04-12T18:21:54.002Z,100.00
2023-04-12T18:23:59.307Z,100.00
2023-04-12T18:26:03.444Z,100.00
2023-04-12T18:28:08.771Z,100.00
2023-04-12T18:30:12.565Z,100.00
2023-04-12T18:32:17.335Z,100.00
2023-04-12T18:34:21.179Z,100.00
2023-04-12T18:36:28.620Z,100.00
2023-04-12T18:38:33.213Z,100.00
2023-04-12T18:40:39.213Z,100.00
2023-04-12T18:42:42.931Z,100.00
2023-04-12T18:44:46.624Z,100.00
2023-04-12T18:46:50.411Z,100.00
2023-04-12T18:48:54.965Z,100.00
2023-04-12T18:50:59.640Z,100.00
2023-04-12T18:53:04.811Z,100.00
2023-04-12T18:55:09.645Z,100.00
2023-04-12T18:57:13.868Z,100.00
2023-04-12T18:59:18.097Z,100.00
2023-04-12T19:01:22.578Z,100.00
2023-04-12T19:03:28.472Z,100.00
2023-04-12T19:05:32.343Z,100.00
2023-04-12T19:07:36.412Z,100.00
2023-04-12T19:09:41.414Z,100.00
2023-04-12T19:11:45.736Z,100.00
2023-04-12T19:13:49.994Z,100.00
2023-04-12T19:15:55.994Z,100.00
2023-04-12T19:18:01.143Z,100.00
2023-04-12T19:20:05.333Z,100.00
2023-04-12T19:22:09.231Z,99.95
2023-04-12T19:24:13.090Z,98.62
2023-04-12T19:26:40.113Z,97.28
2023-04-12T19:28:46.082Z,96.40
2023-04-12T19:30:49.770Z,95.52
2023-04-12T19:32:53.563Z,94.70
2023-04-12T19:34:57.605Z,94.52
2023-04-12T19:37:01.384Z,94.03
2023-04-12T19:39:05.299Z,93.85
2023-04-12T19:41:09.218Z,94.11
2023-04-12T19:43:19.309Z,94.03
2023-04-12T19:45:23.469Z,94.35
2023-04-12T19:47:27.549Z,94.74
2023-04-12T19:49:33.497Z,94.58
2023-04-12T19:51:38.063Z,95.64
2023-04-12T19:53:42.201Z,95.28
2023-04-12T19:55:46.168Z,95.91
2023-04-12T19:57:50.090Z,96.35
2023-04-12T19:59:55.603Z,96.92
2023-04-12T20:01:59.377Z,96.47
2023-04-12T20:04:05.834Z,96.63
2023-04-12T20:06:10.000Z,96.89
2023-04-12T20:08:14.854Z,97.06
2023-04-12T20:10:18.974Z,97.10
2023-04-12T20:12:22.687Z,97.26
2023-04-12T20:14:27.138Z,97.02
2023-04-12T20:16:35.953Z,97.49
2023-04-12T20:18:40.091Z,97.59
2023-04-12T20:20:45.794Z,97.77
2023-04-12T20:22:52.216Z,97.43
2023-04-12T20:24:57.541Z,97.60
2023-04-12T20:27:02.436Z,97.60
2023-04-12T20:29:06.902Z,97.64
2023-04-12T20:31:10.870Z,96.92
2023-04-12T20:33:17.061Z,96.86
2023-04-12T20:35:21.774Z,96.54
2023-04-12T20:37:25.668Z,96.50
2023-04-12T20:39:29.741Z,95.80
2023-04-12T20:41:33.930Z,95.89
2023-04-12T20:43:44.003Z,96.10
2023-04-12T20:45:48.984Z,95.71
2023-04-12T20:47:53.518Z,95.91
2023-04-12T20:49:58.671Z,95.75
2023-04-12T20:52:03.883Z,95.51
2023-04-12T20:54:07.741Z,95.42
2023-04-12T20:56:11.108Z,95.29
2023-04-12T20:58:15.514Z,95.07
2023-04-12T21:00:23.899Z,94.37
2023-04-12T21:02:27.776Z,95.06
2023-04-12T21:04:32.533Z,94.82
2023-04-12T21:06:37.708Z,94.82
2023-04-12T21:08:43.699Z,95.29
2023-04-12T21:10:48.278Z,94.82
2023-04-12T21:12:51.888Z,94.82
2023-04-12T21:14:58.090Z,94.59
2023-04-12T21:17:07.508Z,95.15
2023-04-12T21:19:11.456Z,94.83
2023-04-12T21:21:15.688Z,95.08
2023-04-12T21:23:20.953Z,95.24
2023-04-12T21:25:26.112Z,95.51
2023-04-12T21:27:30.232Z,95.37
2023-04-12T21:29:34.781Z,95.42
2023-04-12T21:31:41.956Z,95.21
2023-04-12T21:33:45.975Z,95.50
2023-04-12T21:35:49.624Z,95.96
2023-04-12T21:37:53.460Z,95.45
2023-04-12T21:39:58.397Z,95.84
2023-04-12T21:42:02.113Z,95.61
2023-04-12T21:44:06.019Z,95.79
2023-04-12T21:46:10.350Z,96.10
2023-04-12T21:48:14.823Z,96.06
2023-04-12T21:50:18.468Z,96.46
2023-04-12T21:52:22.141Z,96.63
2023-04-12T21:54:26.976Z,97.11
2023-04-12T21:56:32.235Z,97.24
2023-04-12T21:58:37.440Z,97.13
2023-04-12T22:00:42.102Z,97.32
2023-04-12T22:02:46.247Z,97.29
2023-04-12T22:04:50.720Z,97.27
2023-04-12T22:06:55.850Z,97.42
2023-04-12T22:09:04.508Z,97.50
2023-04-12T22:11:09.658Z,97.57
2023-04-12T22:13:14.454Z,98.27
2023-04-12T22:15:18.424Z,98.30
2023-04-12T22:17:22.718Z,98.60
2023-04-12T22:19:26.374Z,98.60
2023-04-12T22:21:30.694Z,99.32
2023-04-12T22:23:34.573Z,99.38
2023-04-12T22:25:38.910Z,99.81
2023-04-12T22:27:47.018Z,99.53
2023-04-12T22:29:52.230Z,100.00
2023-04-12T22:31:56.331Z,99.88
2023-04-12T22:34:01.868Z,99.97
2023-04-12T22:36:08.710Z,99.89
2023-04-12T22:38:14.829Z,100.00
2023-04-12T22:40:18.602Z,100.00
2023-04-12T22:42:26.069Z,100.00
2023-04-12T22:44:30.183Z,99.79
2023-04-12T22:46:39.462Z,99.52
2023-04-12T22:48:43.766Z,99.51
2023-04-12T22:50:47.747Z,99.00
2023-04-12T22:52:51.327Z,98.46
2023-04-12T22:54:54.980Z,98.66
2023-04-12T22:56:58.802Z,98.21
2023-04-12T22:59:02.822Z,98.33
2023-04-12T23:01:07.428Z,98.35
2023-04-12T23:03:12.750Z,98.34
2023-04-12T23:05:16.662Z,98.29
2023-04-12T23:07:20.652Z,98.64
2023-04-12T23:09:25.739Z,98.47
2023-04-12T23:11:29.849Z,99.00
2023-04-12T23:13:34.402Z,98.85
2023-04-12T23:15:40.754Z,98.62
2023-04-12T23:17:44.639Z,98.99
2023-04-12T23:19:50.618Z,99.17
2023-04-12T23:21:54.850Z,99.10
2023-04-12T23:23:59.331Z,99.11
2023-04-12T23:26:03.351Z,99.50
2023-04-12T23:28:13.484Z,99.05
2023-04-12T23:30:18.519Z,99.35
2023-04-12T23:32:22.478Z,99.56
2023-04-12T23:34:26.755Z,99.59
2023-04-12T23:36:31.703Z,99.77
2023-04-12T23:38:35.256Z,99.26
2023-04-12T23:40:39.057Z,99.48
2023-04-12T23:42:44.443Z,99.43
2023-04-12T23:44:48.084Z,99.37
2023-04-12T23:46:51.811Z,99.18
2023-04-12T23:48:55.657Z,99.21
2023-04-12T23:50:59.450Z,99.09
2023-04-12T23:53:04.761Z,98.92
2023-04-12T23:55:09.520Z,98.87
2023-04-12T23:57:14.013Z,98.69
2023-04-12T23:59:17.587Z,98.48
